TimePDT,TemperatureF,Dew PointF,Humidity,Sea Level PressureIn,VisibilityMPH,Wind Direction,Wind SpeedMPH,Gust SpeedMPH,PrecipitationIn,Events,Conditions,WindDirDegrees,DateUTC
12:56 AM,60.1,55.0,83,29.83,10.0,North,3.5,-,N/A,,Partly Cloudy,360,2013-07-21 07:56:00
1:12 AM,60.8,55.4,82,29.81,10.0,North,5.8,-,N/A,,Mostly Cloudy,360,2013-07-21 08:12:00
1:56 AM,59.0,55.0,87,29.82,10.0,North,3.5,-,N/A,,Overcast,10,2013-07-21 08:56:00
2:56 AM,59.0,55.0,87,29.81,10.0,North,4.6,-,N/A,,Overcast,360,2013-07-21 09:56:00
3:56 AM,59.0,55.0,87,29.81,10.0,Calm,Calm,-,N/A,,Mostly Cloudy,0,2013-07-21 10:56:00
4:13 AM,59.0,53.6,82,29.80,9.0,Calm,Calm,-,N/A,,Scattered Clouds,0,2013-07-21 11:13:00
4:56 AM,57.9,54.0,87,29.81,9.0,North,3.5,-,N/A,,Partly Cloudy,10,2013-07-21 11:56:00
5:09 AM,59.0,55.4,88,29.80,9.0,Calm,Calm,-,N/A,,Mostly Cloudy,0,2013-07-21 12:09:00
5:56 AM,59.0,54.0,83,29.81,10.0,Calm,Calm,-,N/A,,Overcast,0,2013-07-21 12:56:00
6:41 AM,57.2,51.8,82,29.81,10.0,ESE,3.5,-,N/A,,Scattered Clouds,120,2013-07-21 13:41:00
6:56 AM,57.9,52.0,81,29.82,10.0,ESE,3.5,-,N/A,,Clear,120,2013-07-21 13:56:00
7:56 AM,61.0,53.1,75,29.84,10.0,Calm,Calm,-,N/A,,Clear,0,2013-07-21 14:56:00
8:56 AM,63.0,53.1,70,29.85,10.0,Calm,Calm,-,N/A,,Clear,0,2013-07-21 15:56:00
9:56 AM,64.9,53.1,65,29.84,10.0,Variable,3.5,-,N/A,,Clear,0,2013-07-21 16:56:00
10:56 AM,66.0,55.9,70,29.85,10.0,North,4.6,-,N/A,,Clear,350,2013-07-21 17:56:00
11:56 AM,69.1,55.9,63,29.85,10.0,North,8.1,-,N/A,,Clear,350,2013-07-21 18:56:00
12:56 PM,70.0,55.9,61,29.84,10.0,North,9.2,-,N/A,,Clear,360,2013-07-21 19:56:00
1:56 PM,73.0,55.9,55,29.83,10.0,NNW,9.2,-,N/A,,Clear,330,2013-07-21 20:56:00
2:56 PM,73.9,57.0,55,29.82,10.0,North,11.5,-,N/A,,Clear,350,2013-07-21 21:56:00
3:56 PM,73.9,57.9,57,29.81,10.0,NNW,11.5,-,N/A,,Clear,340,2013-07-21 22:56:00
4:56 PM,72.0,57.9,61,29.80,10.0,NNW,10.4,-,N/A,,Clear,330,2013-07-21 23:56:00
5:56 PM,71.1,57.9,63,29.80,10.0,NNW,9.2,17.3,N/A,,Clear,330,2013-07-22 00:56:00
6:56 PM,68.0,57.9,70,29.82,10.0,NNW,8.1,17.3,N/A,,Clear,330,2013-07-22 01:56:00
7:56 PM,66.0,57.0,73,29.83,10.0,NNW,11.5,-,N/A,,Clear,340,2013-07-22 02:56:00
8:56 PM,63.0,57.0,81,29.86,10.0,NNW,8.1,-,N/A,,Clear,340,2013-07-22 03:56:00
9:56 PM,62.1,55.9,80,29.88,10.0,NNW,6.9,-,N/A,,Clear,330,2013-07-22 04:56:00
10:56 PM,61.0,55.9,83,29.90,10.0,NNW,4.6,-,N/A,,Clear,340,2013-07-22 05:56:00
11:56 PM,60.1,55.0,83,29.91,10.0,North,6.9,-,N/A,,Clear,350,2013-07-22 06:56:00